sensor_id;sensor_type;location;lat;lon;timestamp;pressure;altitude;pressure_sealevel;temperature;humidity
15646;BME280;7922;43.622;1.476;2023-04-09T00:01:06;100380.19;;;7.97;66.03
15646;BME280;7922;43.622;1.476;2023-04-09T00:03:31;100337.72;;;7.74;65.78
15646;BME280;7922;43.622;1.476;2023-04-09T00:05:57;100339.75;;;7.62;67.03
15646;BME280;7922;43.622;1.476;2023-04-09T00:08:22;100162.03;;;6.67;66.79
15646;BME280;7922;43.622;1.476;2023-04-09T00:10:49;100312.72;;;7.54;67.02
15646;BME280;7922;43.622;1.476;2023-04-09T00:13:14;100338.53;;;7.76;66.64
15646;BME280;7922;43.622;1.476;2023-04-09T00:15:40;100358.44;;;7.87;67.23
15646;BME280;7922;43.622;1.476;2023-04-09T00:18:05;100338.66;;;7.71;66.69
15646;BME280;7922;43.622;1.476;2023-04-09T00:20:30;100211.31;;;6.99;66.09
15646;BME280;7922;43.622;1.476;2023-04-09T00:22:56;100362.75;;;7.91;66.01
15646;BME280;7922;43.622;1.476;2023-04-09T00:25:21;100219.28;;;6.96;66.66
15646;BME280;7922;43.622;1.476;2023-04-09T00:27:46;100297.00;;;7.50;67.21
15646;BME280;7922;43.622;1.476;2023-04-09T00:30:12;100356.81;;;7.83;67.14
15646;BME280;7922;43.622;1.476;2023-04-09T00:32:37;100331.03;;;7.59;67.92
15646;BME280;7922;43.622;1.476;2023-04-09T00:35:02;100310.34;;;7.43;67.58
15646;BME280;7922;43.622;1.476;2023-04-09T00:37:28;100253.38;;;7.02;68.23
15646;BME280;7922;43.622;1.476;2023-04-09T00:39:53;100262.03;;;7.07;68.61
15646;BME280;7922;43.622;1.476;2023-04-09T00:42:18;100328.16;;;7.32;68.75
15646;BME280;7922;43.622;1.476;2023-04-09T00:44:43;100200.91;;;6.56;69.17
15646;BME280;7922;43.622;1.476;2023-04-09T00:47:09;100322.41;;;7.15;68.99
15646;BME280;7922;43.622;1.476;2023-04-09T00:49:34;100271.44;;;6.80;69.69
15646;BME280;7922;43.622;1.476;2023-04-09T00:52:00;100353.59;;;7.35;69.27
15646;BME280;7922;43.622;1.476;2023-04-09T00:54:26;100266.13;;;6.82;69.70
15646;BME280;7922;43.622;1.476;2023-04-09T00:56:52;100310.38;;;7.05;69.20
15646;BME280;7922;43.622;1.476;2023-04-09T00:59:18;100346.59;;;7.34;69.38
15646;BME280;7922;43.622;1.476;2023-04-09T01:01:43;100083.50;;;5.69;69.17
15646;BME280;7922;43.622;1.476;2023-04-09T01:04:08;100293.81;;;6.99;68.94
15646;BME280;7922;43.622;1.476;2023-04-09T01:12:05;100365.38;;;7.18;69.94
15646;BME280;7922;43.622;1.476;2023-04-09T01:14:54;100056.88;;;5.44;70.58
15646;BME280;7922;43.622;1.476;2023-04-09T01:17:25;100330.66;;;7.01;70.46
15646;BME280;7922;43.622;1.476;2023-04-09T01:20:06;100341.91;;;7.08;70.57
15646;BME280;7922;43.622;1.476;2023-04-09T01:28:22;100285.13;;;6.56;70.90
15646;BME280;7922;43.622;1.476;2023-04-09T01:30:52;100259.25;;;6.36;70.59
15646;BME280;7922;43.622;1.476;2023-04-09T01:33:21;100287.97;;;6.45;70.76
15646;BME280;7922;43.622;1.476;2023-04-09T01:35:49;100291.63;;;6.38;70.73
15646;BME280;7922;43.622;1.476;2023-04-09T01:38:18;100276.88;;;6.31;70.20
15646;BME280;7922;43.622;1.476;2023-04-09T01:40:44;100299.38;;;6.45;70.61
15646;BME280;7922;43.622;1.476;2023-04-09T01:43:11;100285.44;;;6.40;70.67
15646;BME280;7922;43.622;1.476;2023-04-09T01:45:37;100331.63;;;6.55;70.21
15646;BME280;7922;43.622;1.476;2023-04-09T01:48:03;100336.19;;;6.45;70.21
15646;BME280;7922;43.622;1.476;2023-04-09T01:50:29;100135.00;;;5.35;70.34
15646;BME280;7922;43.622;1.476;2023-04-09T01:52:55;100176.75;;;5.50;70.48
15646;BME280;7922;43.622;1.476;2023-04-09T01:55:21;100104.91;;;5.04;69.89
15646;BME280;7922;43.622;1.476;2023-04-09T01:57:46;100105.00;;;5.01;70.44
15646;BME280;7922;43.622;1.476;2023-04-09T02:00:12;100302.50;;;6.21;69.94
15646;BME280;7922;43.622;1.476;2023-04-09T02:02:46;100035.66;;;4.64;69.23
15646;BME280;7922;43.622;1.476;2023-04-09T02:05:14;100327.72;;;6.31;70.24
15646;BME280;7922;43.622;1.476;2023-04-09T02:07:44;100280.97;;;6.00;69.96
15646;BME280;7922;43.622;1.476;2023-04-09T02:10:12;100218.41;;;5.70;70.38
15646;BME280;7922;43.622;1.476;2023-04-09T02:12:39;100271.38;;;5.98;69.44
15646;BME280;7922;43.622;1.476;2023-04-09T02:15:07;100086.75;;;4.92;69.56
15646;BME280;7922;43.622;1.476;2023-04-09T02:17:33;100286.19;;;6.03;69.59
15646;BME280;7922;43.622;1.476;2023-04-09T02:19:59;100359.94;;;6.44;70.36
15646;BME280;7922;43.622;1.476;2023-04-09T02:22:24;99785.78;;;3.10;69.49
15646;BME280;7922;43.622;1.476;2023-04-09T02:24:49;100312.03;;;6.26;69.73
15646;BME280;7922;43.622;1.476;2023-04-09T02:27:14;100262.56;;;5.99;70.14
15646;BME280;7922;43.622;1.476;2023-04-09T02:29:40;100279.91;;;6.09;70.21
15646;BME280;7922;43.622;1.476;2023-04-09T02:32:05;100361.63;;;6.46;70.02
15646;BME280;7922;43.622;1.476;2023-04-09T02:34:31;100366.16;;;6.38;69.98
15646;BME280;7922;43.622;1.476;2023-04-09T02:36:56;100357.44;;;6.36;70.16
15646;BME280;7922;43.622;1.476;2023-04-09T02:39:21;100100.78;;;4.91;70.81
15646;BME280;7922;43.622;1.476;2023-04-09T02:41:47;100354.94;;;6.30;70.38
15646;BME280;7922;43.622;1.476;2023-04-09T02:44:12;100357.50;;;6.33;70.45
15646;BME280;7922;43.622;1.476;2023-04-09T02:46:38;100333.06;;;6.26;70.03
15646;BME280;7922;43.622;1.476;2023-04-09T02:49:03;100206.59;;;5.46;69.97
15646;BME280;7922;43.622;1.476;2023-04-09T02:51:29;100195.22;;;5.45;70.17
15646;BME280;7922;43.622;1.476;2023-04-09T02:53:54;100119.78;;;5.04;69.44
15646;BME280;7922;43.622;1.476;2023-04-09T02:56:19;100245.44;;;5.78;69.03
15646;BME280;7922;43.622;1.476;2023-04-09T02:58:45;100215.97;;;5.59;69.05
15646;BME280;7922;43.622;1.476;2023-04-09T03:01:10;100278.44;;;5.94;69.71
15646;BME280;7922;43.622;1.476;2023-04-09T03:03:35;100352.41;;;6.24;69.88
15646;BME280;7922;43.622;1.476;2023-04-09T03:06:00;100336.81;;;6.13;70.26
15646;BME280;7922;43.622;1.476;2023-04-09T03:08:26;100339.44;;;6.13;70.92
15646;BME280;7922;43.622;1.476;2023-04-09T03:10:51;100162.84;;;4.95;71.13
15646;BME280;7922;43.622;1.476;2023-04-09T03:13:16;100281.47;;;5.70;71.09
15646;BME280;7922;43.622;1.476;2023-04-09T03:15:42;100347.56;;;6.01;71.54
15646;BME280;7922;43.622;1.476;2023-04-09T03:18:07;100187.38;;;4.93;72.00
15646;BME280;7922;43.622;1.476;2023-04-09T03:20:37;100289.63;;;5.56;72.13
15646;BME280;7922;43.622;1.476;2023-04-09T03:23:02;100241.75;;;5.37;72.10
15646;BME280;7922;43.622;1.476;2023-04-09T03:25:27;100276.81;;;5.38;72.00
15646;BME280;7922;43.622;1.476;2023-04-09T03:27:53;100285.34;;;5.50;71.30
15646;BME280;7922;43.622;1.476;2023-04-09T03:30:18;100307.97;;;5.58;71.14
15646;BME280;7922;43.622;1.476;2023-04-09T03:32:43;100257.59;;;5.34;70.86
15646;BME280;7922;43.622;1.476;2023-04-09T03:35:08;100313.31;;;5.53;71.11
15646;BME280;7922;43.622;1.476;2023-04-09T03:37:34;100145.03;;;4.62;71.24
15646;BME280;7922;43.622;1.476;2023-04-09T03:39:59;100226.50;;;5.08;70.95
15646;BME280;7922;43.622;1.476;2023-04-09T03:42:24;100107.81;;;4.35;71.38
15646;BME280;7922;43.622;1.476;2023-04-09T03:44:52;100212.78;;;4.89;71.21
15646;BME280;7922;43.622;1.476;2023-04-09T03:47:17;100274.31;;;5.28;71.27
15646;BME280;7922;43.622;1.476;2023-04-09T03:49:43;100249.94;;;5.20;70.80
15646;BME280;7922;43.622;1.476;2023-04-09T03:52:08;100266.38;;;5.31;71.45
15646;BME280;7922;43.622;1.476;2023-04-09T03:54:33;100132.84;;;4.57;71.16
15646;BME280;7922;43.622;1.476;2023-04-09T03:56:58;100209.00;;;5.07;70.81
15646;BME280;7922;43.622;1.476;2023-04-09T03:59:24;100301.78;;;5.63;70.81
15646;BME280;7922;43.622;1.476;2023-04-09T04:01:49;100265.34;;;5.40;70.58
15646;BME280;7922;43.622;1.476;2023-04-09T04:04:14;100178.84;;;4.80;70.17
15646;BME280;7922;43.622;1.476;2023-04-09T04:06:40;100350.50;;;5.83;70.63
15646;BME280;7922;43.622;1.476;2023-04-09T04:09:05;100291.72;;;5.36;70.77
15646;BME280;7922;43.622;1.476;2023-04-09T04:11:31;100290.81;;;5.37;70.98
15646;BME280;7922;43.622;1.476;2023-04-09T04:13:56;100278.66;;;5.31;71.06
15646;BME280;7922;43.622;1.476;2023-04-09T04:16:22;100263.06;;;5.20;71.32
15646;BME280;7922;43.622;1.476;2023-04-09T04:18:47;100354.47;;;5.55;71.61
15646;BME280;7922;43.622;1.476;2023-04-09T04:21:13;100293.69;;;5.23;71.73
15646;BME280;7922;43.622;1.476;2023-04-09T04:23:39;100322.25;;;5.43;71.67
15646;BME280;7922;43.622;1.476;2023-04-09T04:26:08;100266.69;;;5.12;71.61
15646;BME280;7922;43.622;1.476;2023-04-09T04:28:33;100203.41;;;4.76;71.81
15646;BME280;7922;43.622;1.476;2023-04-09T04:30:59;100275.56;;;5.04;72.56
15646;BME280;7922;43.622;1.476;2023-04-09T04:33:24;100074.44;;;3.86;72.16
15646;BME280;7922;43.622;1.476;2023-04-09T04:35:49;100085.75;;;3.88;72.50
15646;BME280;7922;43.622;1.476;2023-04-09T04:38:14;100319.13;;;5.18;71.94
15646;BME280;7922;43.622;1.476;2023-04-09T04:40:40;100073.69;;;3.76;72.38
15646;BME280;7922;43.622;1.476;2023-04-09T04:43:05;100328.81;;;5.16;72.98
15646;BME280;7922;43.622;1.476;2023-04-09T04:45:30;100215.91;;;4.58;73.52
15646;BME280;7922;43.622;1.476;2023-04-09T04:47:56;100196.09;;;4.36;73.50
15646;BME280;7922;43.622;1.476;2023-04-09T04:50:21;100279.50;;;4.76;73.30
15646;BME280;7922;43.622;1.476;2023-04-09T04:52:46;100249.88;;;4.66;72.96
15646;BME280;7922;43.622;1.476;2023-04-09T04:55:11;100287.25;;;4.83;73.11
15646;BME280;7922;43.622;1.476;2023-04-09T04:57:37;100239.47;;;4.60;72.90
15646;BME280;7922;43.622;1.476;2023-04-09T05:00:02;100054.06;;;3.40;73.11
15646;BME280;7922;43.622;1.476;2023-04-09T05:02:27;100301.22;;;4.87;72.95
15646;BME280;7922;43.622;1.476;2023-04-09T05:04:53;100341.13;;;5.11;73.20
15646;BME280;7922;43.622;1.476;2023-04-09T05:07:18;100054.16;;;3.34;73.19
15646;BME280;7922;43.622;1.476;2023-04-09T05:09:43;100149.56;;;3.85;73.62
15646;BME280;7922;43.622;1.476;2023-04-09T05:12:08;100399.56;;;5.25;73.71
15646;BME280;7922;43.622;1.476;2023-04-09T05:14:34;100286.69;;;4.62;73.51
15646;BME280;7922;43.622;1.476;2023-04-09T05:16:59;100387.63;;;5.02;74.45
15646;BME280;7922;43.622;1.476;2023-04-09T05:19:24;100393.59;;;5.14;74.35
15646;BME280;7922;43.622;1.476;2023-04-09T05:21:49;100227.91;;;4.08;73.51
15646;BME280;7922;43.622;1.476;2023-04-09T05:24:15;100169.75;;;3.79;73.72
15646;BME280;7922;43.622;1.476;2023-04-09T05:26:40;100293.88;;;4.47;73.72
15646;BME280;7922;43.622;1.476;2023-04-09T05:29:05;100399.69;;;5.16;73.83
15646;BME280;7922;43.622;1.476;2023-04-09T05:31:31;100405.00;;;5.13;73.35
15646;BME280;7922;43.622;1.476;2023-04-09T05:33:56;100331.97;;;4.74;73.30
15646;BME280;7922;43.622;1.476;2023-04-09T05:36:21;100354.53;;;4.89;73.47
15646;BME280;7922;43.622;1.476;2023-04-09T05:38:47;100269.41;;;4.47;72.86
15646;BME280;7922;43.622;1.476;2023-04-09T05:41:12;100257.25;;;4.40;73.27
15646;BME280;7922;43.622;1.476;2023-04-09T05:43:38;100419.59;;;5.32;73.21
15646;BME280;7922;43.622;1.476;2023-04-09T05:46:04;100185.19;;;3.99;72.95
15646;BME280;7922;43.622;1.476;2023-04-09T05:48:29;100373.25;;;5.28;73.23
15646;BME280;7922;43.622;1.476;2023-04-09T05:50:54;100188.25;;;4.34;73.01
15646;BME280;7922;43.622;1.476;2023-04-09T05:53:20;100416.34;;;5.75;71.86
15646;BME280;7922;43.622;1.476;2023-04-09T05:55:45;100242.59;;;4.85;71.17
15646;BME280;7922;43.622;1.476;2023-04-09T05:58:11;100406.41;;;5.94;70.66
15646;BME280;7922;43.622;1.476;2023-04-09T06:00:37;100358.34;;;5.84;70.09
15646;BME280;7922;43.622;1.476;2023-04-09T06:03:03;100314.97;;;5.60;70.58
15646;BME280;7922;43.622;1.476;2023-04-09T06:05:28;100392.00;;;6.18;70.55
15646;BME280;7922;43.622;1.476;2023-04-09T06:07:54;100236.28;;;5.51;69.34
15646;BME280;7922;43.622;1.476;2023-04-09T06:10:19;100408.91;;;6.51;69.13
15646;BME280;7922;43.622;1.476;2023-04-09T06:12:44;100342.69;;;6.27;67.63
15646;BME280;7922;43.622;1.476;2023-04-09T06:15:10;100412.75;;;6.78;67.16
15646;BME280;7922;43.622;1.476;2023-04-09T06:17:35;100358.38;;;6.77;66.61
15646;BME280;7922;43.622;1.476;2023-04-09T06:20:00;100367.72;;;6.92;65.75
15646;BME280;7922;43.622;1.476;2023-04-09T06:22:25;100339.78;;;6.85;65.36
15646;BME280;7922;43.622;1.476;2023-04-09T06:24:51;100218.88;;;6.35;65.43
15646;BME280;7922;43.622;1.476;2023-04-09T06:27:16;100382.47;;;7.39;65.51
15646;BME280;7922;43.622;1.476;2023-04-09T06:29:41;100281.66;;;6.94;64.68
15646;BME280;7922;43.622;1.476;2023-04-09T06:32:07;100426.16;;;7.88;64.42
15646;BME280;7922;43.622;1.476;2023-04-09T06:34:32;100408.13;;;7.70;63.90
15646;BME280;7922;43.622;1.476;2023-04-09T06:36:57;100249.34;;;6.87;64.26
15646;BME280;7922;43.622;1.476;2023-04-09T06:39:22;100405.31;;;7.76;65.34
15646;BME280;7922;43.622;1.476;2023-04-09T06:41:48;100259.00;;;6.87;64.53
15646;BME280;7922;43.622;1.476;2023-04-09T06:44:13;100370.63;;;7.57;64.55
15646;BME280;7922;43.622;1.476;2023-04-09T06:46:38;100225.69;;;6.84;64.41
15646;BME280;7922;43.622;1.476;2023-04-09T06:49:04;100410.13;;;7.96;64.12
15646;BME280;7922;43.622;1.476;2023-04-09T06:51:29;100365.69;;;7.81;64.08
15646;BME280;7922;43.622;1.476;2023-04-09T06:53:54;100411.13;;;8.26;63.42
15646;BME280;7922;43.622;1.476;2023-04-09T06:56:20;100334.09;;;8.12;62.69
15646;BME280;7922;43.622;1.476;2023-04-09T06:58:45;100305.03;;;8.13;61.04
15646;BME280;7922;43.622;1.476;2023-04-09T07:01:11;100384.19;;;8.79;60.91
15646;BME280;7922;43.622;1.476;2023-04-09T07:03:36;100387.09;;;8.99;60.21
15646;BME280;7922;43.622;1.476;2023-04-09T07:06:01;100422.28;;;9.31;58.98
15646;BME280;7922;43.622;1.476;2023-04-09T07:08:27;100276.44;;;8.60;57.69
15646;BME280;7922;43.622;1.476;2023-04-09T07:10:52;100441.81;;;9.83;56.89
15646;BME280;7922;43.622;1.476;2023-04-09T07:13:17;100411.16;;;9.77;56.45
15646;BME280;7922;43.622;1.476;2023-04-09T07:15:43;100450.31;;;10.21;55.98
15646;BME280;7922;43.622;1.476;2023-04-09T07:18:08;100410.97;;;10.10;55.10
15646;BME280;7922;43.622;1.476;2023-04-09T07:20:33;100311.84;;;9.67;54.35
15646;BME280;7922;43.622;1.476;2023-04-09T07:22:59;100415.31;;;10.38;53.73
15646;BME280;7922;43.622;1.476;2023-04-09T07:25:24;100411.50;;;10.46;53.14
15646;BME280;7922;43.622;1.476;2023-04-09T07:27:49;100465.78;;;10.84;54.22
15646;BME280;7922;43.622;1.476;2023-04-09T07:30:14;100321.59;;;9.92;54.66
15646;BME280;7922;43.622;1.476;2023-04-09T07:32:40;100275.59;;;9.69;54.60
15646;BME280;7922;43.622;1.476;2023-04-09T07:35:06;100476.34;;;10.86;53.56
15646;BME280;7922;43.622;1.476;2023-04-09T07:37:32;100343.41;;;10.23;53.94
15646;BME280;7922;43.622;1.476;2023-04-09T07:39:57;100414.16;;;10.71;53.16
15646;BME280;7922;43.622;1.476;2023-04-09T07:42:23;100390.34;;;10.70;52.69
15646;BME280;7922;43.622;1.476;2023-04-09T07:44:48;100261.31;;;10.00;53.04
15646;BME280;7922;43.622;1.476;2023-04-09T07:47:14;100439.47;;;11.27;53.28
15646;BME280;7922;43.622;1.476;2023-04-09T07:49:39;100424.69;;;11.43;53.25
15646;BME280;7922;43.622;1.476;2023-04-09T07:52:05;100401.44;;;11.50;53.63
15646;BME280;7922;43.622;1.476;2023-04-09T07:54:30;100422.94;;;11.66;52.99
15646;BME280;7922;43.622;1.476;2023-04-09T07:56:56;100419.56;;;11.84;52.73
15646;BME280;7922;43.622;1.476;2023-04-09T07:59:21;100472.97;;;12.41;51.65
15646;BME280;7922;43.622;1.476;2023-04-09T08:01:46;100307.09;;;11.65;51.37
15646;BME280;7922;43.622;1.476;2023-04-09T08:04:11;100438.19;;;12.47;49.63
15646;BME280;7922;43.622;1.476;2023-04-09T08:06:37;100257.06;;;11.76;48.18
15646;BME280;7922;43.622;1.476;2023-04-09T08:09:02;100447.31;;;13.01;48.10
15646;BME280;7922;43.622;1.476;2023-04-09T08:11:28;100396.06;;;12.79;47.20
15646;BME280;7922;43.622;1.476;2023-04-09T08:13:53;100433.00;;;13.43;46.97
15646;BME280;7922;43.622;1.476;2023-04-09T08:16:19;100465.38;;;14.08;44.69
15646;BME280;7922;43.622;1.476;2023-04-09T08:18:44;100430.50;;;13.95;44.03
15646;BME280;7922;43.622;1.476;2023-04-09T08:21:10;100313.84;;;13.31;43.92
15646;BME280;7922;43.622;1.476;2023-04-09T08:23:35;100373.94;;;13.90;43.85
15646;BME280;7922;43.622;1.476;2023-04-09T08:26:00;100290.50;;;13.18;44.17
15646;BME280;7922;43.622;1.476;2023-04-09T08:28:26;100321.94;;;13.46;44.67
15646;BME280;7922;43.622;1.476;2023-04-09T08:30:51;100433.03;;;13.98;44.75
15646;BME280;7922;43.622;1.476;2023-04-09T08:33:16;100378.16;;;13.40;44.70
15646;BME280;7922;43.622;1.476;2023-04-09T08:35:41;100387.06;;;13.58;44.17
15646;BME280;7922;43.622;1.476;2023-04-09T08:38:07;100378.31;;;13.73;44.00
15646;BME280;7922;43.622;1.476;2023-04-09T08:40:35;100462.84;;;14.24;44.08
15646;BME280;7922;43.622;1.476;2023-04-09T08:43:03;100433.38;;;14.44;42.90
15646;BME280;7922;43.622;1.476;2023-04-09T08:45:29;100393.13;;;14.49;42.77
15646;BME280;7922;43.622;1.476;2023-04-09T08:47:54;100427.91;;;14.82;42.98
15646;BME280;7922;43.622;1.476;2023-04-09T08:50:21;100328.81;;;14.56;42.90
15646;BME280;7922;43.622;1.476;2023-04-09T08:52:46;100441.94;;;15.50;42.54
15646;BME280;7922;43.622;1.476;2023-04-09T08:55:12;100451.84;;;15.66;41.59
15646;BME280;7922;43.622;1.476;2023-04-09T08:57:38;100369.38;;;15.44;40.95
15646;BME280;7922;43.622;1.476;2023-04-09T09:00:04;100387.56;;;15.69;42.58
15646;BME280;7922;43.622;1.476;2023-04-09T09:02:30;100423.59;;;16.07;41.38
15646;BME280;7922;43.622;1.476;2023-04-09T09:04:55;100390.03;;;15.72;41.68
15646;BME280;7922;43.622;1.476;2023-04-09T09:07:21;100398.66;;;15.29;41.76
15646;BME280;7922;43.622;1.476;2023-04-09T09:09:57;100452.47;;;15.37;43.85
15646;BME280;7922;43.622;1.476;2023-04-09T09:12:39;100361.34;;;14.96;43.52
15646;BME280;7922;43.622;1.476;2023-04-09T09:15:24;100295.34;;;15.00;42.81
15646;BME280;7922;43.622;1.476;2023-04-09T09:17:55;100380.81;;;15.77;42.23
15646;BME280;7922;43.622;1.476;2023-04-09T09:20:22;100430.69;;;16.39;41.46
15646;BME280;7922;43.622;1.476;2023-04-09T09:22:52;100473.06;;;16.60;41.93
15646;BME280;7922;43.622;1.476;2023-04-09T09:25:18;100425.16;;;16.42;41.28
15646;BME280;7922;43.622;1.476;2023-04-09T09:27:44;100415.41;;;16.41;41.50
15646;BME280;7922;43.622;1.476;2023-04-09T09:30:20;100387.47;;;16.60;41.03
15646;BME280;7922;43.622;1.476;2023-04-09T09:32:45;100415.81;;;16.79;41.37
15646;BME280;7922;43.622;1.476;2023-04-09T09:35:10;100410.53;;;16.77;41.19
15646;BME280;7922;43.622;1.476;2023-04-09T09:37:36;100330.03;;;16.37;40.51
15646;BME280;7922;43.622;1.476;2023-04-09T09:40:01;100404.06;;;16.51;40.50
15646;BME280;7922;43.622;1.476;2023-04-09T09:42:27;100449.34;;;16.99;40.45
15646;BME280;7922;43.622;1.476;2023-04-09T09:44:53;100457.31;;;17.29;40.16
15646;BME280;7922;43.622;1.476;2023-04-09T09:47:19;100426.22;;;16.98;41.81
15646;BME280;7922;43.622;1.476;2023-04-09T09:49:47;100382.06;;;16.76;40.99
15646;BME280;7922;43.622;1.476;2023-04-09T09:52:13;100400.91;;;17.18;41.82
15646;BME280;7922;43.622;1.476;2023-04-09T09:54:41;100276.09;;;16.59;40.40
15646;BME280;7922;43.622;1.476;2023-04-09T09:57:08;100385.03;;;17.15;40.72
15646;BME280;7922;43.622;1.476;2023-04-09T09:59:36;100379.38;;;17.19;40.96
15646;BME280;7922;43.622;1.476;2023-04-09T10:02:04;100362.75;;;17.28;40.77
15646;BME280;7922;43.622;1.476;2023-04-09T10:04:33;100445.78;;;17.84;40.67
15646;BME280;7922;43.622;1.476;2023-04-09T10:06:59;100454.19;;;18.19;39.99
15646;BME280;7922;43.622;1.476;2023-04-09T10:09:26;100409.06;;;17.99;40.51
15646;BME280;7922;43.622;1.476;2023-04-09T10:11:51;100270.81;;;17.28;40.85
15646;BME280;7922;43.622;1.476;2023-04-09T10:14:17;100247.88;;;17.24;39.48
15646;BME280;7922;43.622;1.476;2023-04-09T10:16:43;100413.97;;;18.32;39.23
15646;BME280;7922;43.622;1.476;2023-04-09T10:19:08;100450.56;;;18.73;39.69
15646;BME280;7922;43.622;1.476;2023-04-09T10:21:50;100456.53;;;18.64;38.57
15646;BME280;7922;43.622;1.476;2023-04-09T10:24:16;100415.59;;;18.35;38.25
15646;BME280;7922;43.622;1.476;2023-04-09T10:26:42;100375.38;;;17.95;38.39
15646;BME280;7922;43.622;1.476;2023-04-09T10:29:09;100440.72;;;18.46;39.44
15646;BME280;7922;43.622;1.476;2023-04-09T10:31:54;100311.69;;;17.71;38.46
15646;BME280;7922;43.622;1.476;2023-04-09T10:34:27;100339.75;;;17.93;39.45
15646;BME280;7922;43.622;1.476;2023-04-09T10:36:55;100342.91;;;17.99;38.40
15646;BME280;7922;43.622;1.476;2023-04-09T10:39:30;100376.97;;;18.37;39.53
15646;BME280;7922;43.622;1.476;2023-04-09T10:41:57;100434.25;;;19.02;38.98
15646;BME280;7922;43.622;1.476;2023-04-09T10:44:25;100427.38;;;18.72;38.20
15646;BME280;7922;43.622;1.476;2023-04-09T10:46:55;100302.09;;;17.82;38.32
15646;BME280;7922;43.622;1.476;2023-04-09T10:52:01;100425.88;;;19.19;38.11
15646;BME280;7922;43.622;1.476;2023-04-09T10:59:38;100413.31;;;19.69;36.90
15646;BME280;7922;43.622;1.476;2023-04-09T11:02:07;100366.34;;;19.25;36.35
15646;BME280;7922;43.622;1.476;2023-04-09T11:04:44;100298.56;;;19.21;37.61
15646;BME280;7922;43.622;1.476;2023-04-09T11:07:14;100346.97;;;18.96;35.70
15646;BME280;7922;43.622;1.476;2023-04-09T11:09:41;100344.66;;;19.15;35.84
15646;BME280;7922;43.622;1.476;2023-04-09T11:12:06;100375.34;;;19.37;36.05
15646;BME280;7922;43.622;1.476;2023-04-09T11:14:32;100336.25;;;19.20;35.38
15646;BME280;7922;43.622;1.476;2023-04-09T11:16:58;100326.44;;;19.32;35.97
15646;BME280;7922;43.622;1.476;2023-04-09T11:19:23;100331.13;;;19.54;36.46
15646;BME280;7922;43.622;1.476;2023-04-09T11:21:48;100382.81;;;19.57;34.64
15646;BME280;7922;43.622;1.476;2023-04-09T11:24:14;100386.72;;;19.77;34.44
15646;BME280;7922;43.622;1.476;2023-04-09T11:26:40;100362.56;;;19.64;33.82
15646;BME280;7922;43.622;1.476;2023-04-09T11:29:08;100270.03;;;18.95;32.70
15646;BME280;7922;43.622;1.476;2023-04-09T11:31:34;100278.28;;;19.17;32.75
15646;BME280;7922;43.622;1.476;2023-04-09T11:34:00;100339.13;;;19.30;31.67
15646;BME280;7922;43.622;1.476;2023-04-09T11:36:25;100374.72;;;19.70;31.50
15646;BME280;7922;43.622;1.476;2023-04-09T11:38:51;100302.44;;;19.89;31.52
15646;BME280;7922;43.622;1.476;2023-04-09T11:41:16;100353.22;;;20.40;31.45
15646;BME280;7922;43.622;1.476;2023-04-09T11:43:41;100381.47;;;20.35;31.31
15646;BME280;7922;43.622;1.476;2023-04-09T11:46:07;100320.78;;;20.19;30.56
15646;BME280;7922;43.622;1.476;2023-04-09T11:48:33;100302.69;;;20.33;30.94
15646;BME280;7922;43.622;1.476;2023-04-09T11:50:59;100310.28;;;20.39;31.29
15646;BME280;7922;43.622;1.476;2023-04-09T11:53:29;100360.78;;;20.71;30.34
15646;BME280;7922;43.622;1.476;2023-04-09T11:55:54;100397.72;;;20.68;31.19
15646;BME280;7922;43.622;1.476;2023-04-09T11:58:24;100316.47;;;19.82;30.55
15646;BME280;7922;43.622;1.476;2023-04-09T12:00:53;100390.22;;;20.26;29.93
15646;BME280;7922;43.622;1.476;2023-04-09T12:03:26;100334.91;;;20.10;29.04
15646;BME280;7922;43.622;1.476;2023-04-09T12:05:52;100332.72;;;20.51;28.79
15646;BME280;7922;43.622;1.476;2023-04-09T12:08:22;100332.88;;;20.72;29.59
15646;BME280;7922;43.622;1.476;2023-04-09T12:10:47;100375.25;;;21.03;27.98
15646;BME280;7922;43.622;1.476;2023-04-09T12:13:12;100266.38;;;20.38;27.90
15646;BME280;7922;43.622;1.476;2023-04-09T12:15:39;100380.38;;;21.06;27.47
15646;BME280;7922;43.622;1.476;2023-04-09T12:18:11;100365.00;;;20.51;28.06
15646;BME280;7922;43.622;1.476;2023-04-09T12:20:45;100352.75;;;20.11;29.22
15646;BME280;7922;43.622;1.476;2023-04-09T12:23:11;100264.34;;;19.36;30.53
15646;BME280;7922;43.622;1.476;2023-04-09T12:25:39;100255.13;;;19.04;32.04
15646;BME280;7922;43.622;1.476;2023-04-09T12:28:06;100290.81;;;19.17;31.45
15646;BME280;7922;43.622;1.476;2023-04-09T12:30:32;100288.84;;;18.95;30.67
15646;BME280;7922;43.622;1.476;2023-04-09T12:32:58;100291.88;;;18.90;30.93
15646;BME280;7922;43.622;1.476;2023-04-09T12:35:23;100194.47;;;18.39;30.48
15646;BME280;7922;43.622;1.476;2023-04-09T12:37:49;100351.38;;;19.34;29.87
15646;BME280;7922;43.622;1.476;2023-04-09T12:40:15;100298.16;;;19.15;29.07
15646;BME280;7922;43.622;1.476;2023-04-09T12:42:44;100249.59;;;19.18;30.27
15646;BME280;7922;43.622;1.476;2023-04-09T12:45:16;100306.75;;;19.68;29.15
15646;BME280;7922;43.622;1.476;2023-04-09T12:47:44;100382.25;;;19.89;28.65
15646;BME280;7922;43.622;1.476;2023-04-09T12:50:10;100402.50;;;19.82;28.59
15646;BME280;7922;43.622;1.476;2023-04-09T12:52:36;100249.59;;;19.18;28.77
15646;BME280;7922;43.622;1.476;2023-04-09T12:55:02;100330.66;;;19.84;29.15
15646;BME280;7922;43.622;1.476;2023-04-09T12:57:28;100319.50;;;19.77;28.52
15646;BME280;7922;43.622;1.476;2023-04-09T12:59:54;100336.22;;;19.93;28.12
15646;BME280;7922;43.622;1.476;2023-04-09T13:02:19;100377.50;;;20.16;28.85
15646;BME280;7922;43.622;1.476;2023-04-09T13:04:45;100247.22;;;19.37;29.36
15646;BME280;7922;43.622;1.476;2023-04-09T13:07:10;100274.06;;;19.50;28.31
15646;BME280;7922;43.622;1.476;2023-04-09T13:09:36;100227.41;;;19.03;27.86
15646;BME280;7922;43.622;1.476;2023-04-09T13:12:01;100343.59;;;19.79;26.96
15646;BME280;7922;43.622;1.476;2023-04-09T13:14:26;100312.53;;;19.51;27.05
15646;BME280;7922;43.622;1.476;2023-04-09T13:16:52;100353.44;;;19.67;27.85
15646;BME280;7922;43.622;1.476;2023-04-09T13:19:17;100323.78;;;19.56;28.24